createdAt,value
2017-08-13T00:01:21.330Z,0.70
2017-08-13T00:03:48.802Z,0.70
2017-08-13T00:06:17.056Z,0.73
2017-08-13T00:08:44.526Z,0.80
2017-08-13T00:11:12.089Z,0.80
2017-08-13T00:13:39.571Z,0.80
2017-08-13T00:16:07.841Z,0.70
2017-08-13T00:18:35.302Z,0.70
2017-08-13T00:21:03.452Z,0.60
2017-08-13T00:23:30.915Z,0.70
2017-08-13T00:25:58.371Z,0.70
2017-08-13T00:28:25.822Z,0.80
2017-08-13T00:30:53.688Z,0.87
2017-08-13T00:33:21.150Z,0.93
2017-08-13T00:35:48.620Z,0.83
2017-08-13T00:38:16.056Z,0.80
2017-08-13T00:40:43.509Z,1.20
2017-08-13T00:43:11.733Z,1.77
2017-08-13T00:45:39.192Z,1.00
2017-08-13T00:48:06.638Z,1.00
2017-08-13T00:50:34.132Z,1.00
2017-08-13T00:53:01.612Z,1.10
2017-08-13T00:55:29.098Z,0.90
2017-08-13T00:57:57.320Z,1.10
2017-08-13T01:00:24.798Z,0.80
2017-08-13T01:02:52.288Z,0.90
2017-08-13T01:05:19.761Z,0.90
2017-08-13T01:07:48.030Z,0.90
2017-08-13T01:10:16.318Z,1.00
2017-08-13T01:12:43.942Z,1.10
2017-08-13T01:15:11.423Z,1.40
2017-08-13T01:17:38.898Z,1.20
2017-08-13T01:20:07.301Z,1.40
2017-08-13T01:22:34.774Z,0.80
2017-08-13T01:25:03.007Z,1.20
2017-08-13T01:27:30.465Z,0.90
2017-08-13T01:29:57.968Z,1.00
2017-08-13T01:32:25.463Z,0.90
2017-08-13T01:34:52.954Z,1.30
2017-08-13T01:37:20.454Z,1.37
2017-08-13T01:39:48.007Z,0.93
2017-08-13T01:42:15.500Z,1.17
2017-08-13T01:44:43.754Z,1.00
2017-08-13T01:47:11.238Z,0.90
2017-08-13T01:49:38.701Z,1.00
2017-08-13T01:52:06.961Z,1.10
2017-08-13T01:54:34.437Z,1.00
2017-08-13T01:57:01.915Z,1.23
2017-08-13T01:59:30.137Z,1.10
2017-08-13T02:01:58.188Z,1.30
2017-08-13T02:04:25.666Z,1.27
2017-08-13T02:06:53.132Z,1.10
2017-08-13T02:09:20.624Z,1.33
2017-08-13T02:11:48.098Z,1.50
2017-08-13T02:14:15.578Z,1.50
2017-08-13T02:16:43.041Z,1.60
2017-08-13T02:19:10.493Z,1.33
2017-08-13T02:21:37.945Z,1.70
2017-08-13T02:24:05.420Z,1.40
2017-08-13T02:26:32.865Z,2.17
2017-08-13T02:29:00.316Z,1.80
2017-08-13T02:31:27.826Z,1.70
2017-08-13T02:33:56.088Z,2.20
2017-08-13T02:36:23.644Z,2.03
2017-08-13T02:38:51.120Z,2.50
2017-08-13T02:41:18.582Z,2.50
2017-08-13T02:43:46.084Z,2.63
2017-08-13T02:46:13.576Z,2.87
2017-08-13T02:48:41.029Z,2.23
2017-08-13T02:51:08.508Z,2.50
2017-08-13T02:53:35.982Z,3.33
2017-08-13T02:56:03.466Z,3.37
2017-08-13T02:58:30.929Z,2.80
2017-08-13T03:00:58.474Z,3.27
2017-08-13T03:03:25.987Z,3.40
2017-08-13T03:05:54.249Z,3.50
2017-08-13T03:08:22.517Z,4.10
2017-08-13T03:10:49.990Z,4.27
2017-08-13T03:13:18.237Z,3.97
2017-08-13T03:15:45.712Z,3.90
2017-08-13T03:18:13.992Z,4.50
2017-08-13T03:20:41.444Z,4.53
2017-08-13T03:23:08.922Z,3.60
2017-08-13T03:25:36.388Z,3.70
2017-08-13T03:28:03.885Z,4.03
2017-08-13T03:30:31.379Z,4.23
2017-08-13T03:32:58.885Z,4.53
2017-08-13T03:35:26.353Z,5.40
2017-08-13T03:37:54.087Z,4.30
2017-08-13T03:40:21.530Z,4.50
2017-08-13T03:42:49.018Z,4.20
2017-08-13T03:45:17.671Z,5.70
2017-08-13T03:47:45.166Z,4.50
2017-08-13T03:50:12.617Z,4.97
2017-08-13T03:52:40.081Z,5.97
2017-08-13T03:55:07.546Z,6.07
2017-08-13T03:57:34.996Z,5.67
2017-08-13T04:00:02.482Z,5.80
2017-08-13T04:02:29.987Z,5.23
2017-08-13T04:04:58.219Z,6.60
2017-08-13T04:07:25.695Z,7.23
2017-08-13T04:09:53.282Z,6.30
2017-08-13T04:12:20.740Z,7.67
2017-08-13T04:14:49.283Z,8.17
2017-08-13T04:17:16.760Z,8.43
2017-08-13T04:19:44.229Z,9.30
2017-08-13T04:22:11.730Z,7.60
2017-08-13T04:24:39.206Z,8.90
2017-08-13T04:27:07.445Z,9.40
2017-08-13T04:29:34.930Z,8.53
2017-08-13T04:32:02.369Z,8.03
2017-08-13T04:34:29.837Z,8.30
2017-08-13T04:36:57.285Z,9.07
2017-08-13T04:39:24.744Z,8.80
2017-08-13T04:41:52.200Z,9.13
2017-08-13T04:44:19.668Z,9.40
2017-08-13T04:46:47.154Z,9.17
2017-08-13T04:49:14.618Z,9.63
2017-08-13T04:51:42.076Z,9.10
2017-08-13T04:54:09.532Z,8.30
2017-08-13T04:56:36.992Z,9.30
2017-08-13T04:59:04.443Z,9.83
2017-08-13T05:01:31.895Z,9.13
2017-08-13T05:03:59.394Z,9.23
2017-08-13T05:06:26.955Z,9.60
2017-08-13T05:08:54.412Z,10.93
2017-08-13T05:11:21.877Z,8.77
2017-08-13T05:13:49.334Z,9.90
2017-08-13T05:16:16.893Z,9.30
2017-08-13T05:18:44.357Z,9.20
2017-08-13T05:21:11.808Z,9.20
2017-08-13T05:23:39.268Z,9.73
2017-08-13T05:26:06.729Z,9.63
2017-08-13T05:28:34.232Z,11.20
2017-08-13T05:31:01.677Z,9.40
2017-08-13T05:33:29.160Z,10.03
2017-08-13T05:35:56.621Z,10.23
2017-08-13T05:38:24.081Z,10.90
2017-08-13T05:40:51.541Z,11.53
2017-08-13T05:43:19.007Z,10.33
2017-08-13T05:45:46.470Z,11.60
2017-08-13T05:48:13.894Z,9.90
2017-08-13T05:50:41.357Z,10.23
2017-08-13T05:53:08.824Z,11.10
2017-08-13T05:55:36.797Z,9.07
2017-08-13T05:58:04.257Z,9.00
2017-08-13T06:00:31.721Z,10.20
2017-08-13T06:02:59.180Z,10.17
2017-08-13T06:05:26.646Z,10.17
2017-08-13T06:07:54.105Z,10.13
2017-08-13T06:10:21.560Z,10.00
2017-08-13T06:12:49.056Z,9.30
2017-08-13T06:15:16.517Z,11.33
2017-08-13T06:17:45.199Z,10.93
2017-08-13T06:20:12.659Z,9.17
2017-08-13T06:22:40.129Z,9.50
2017-08-13T06:25:07.593Z,8.87
2017-08-13T06:27:35.872Z,7.77
2017-08-13T06:30:03.332Z,9.27
2017-08-13T06:32:30.793Z,10.73
2017-08-13T06:34:58.252Z,8.70
2017-08-13T06:37:25.728Z,8.70
2017-08-13T06:39:53.189Z,9.70
2017-08-13T06:42:20.653Z,9.40
2017-08-13T06:44:48.120Z,10.23
2017-08-13T06:47:15.568Z,10.70
2017-08-13T06:49:43.024Z,9.93
2017-08-13T06:52:10.491Z,10.00
2017-08-13T06:54:38.042Z,9.40
2017-08-13T06:57:05.491Z,9.30
2017-08-13T06:59:33.713Z,9.73
2017-08-13T07:02:01.173Z,9.97
2017-08-13T07:04:28.644Z,9.20
2017-08-13T07:06:56.101Z,9.60
2017-08-13T07:09:23.573Z,9.90
2017-08-13T07:11:51.053Z,10.30
2017-08-13T07:14:18.513Z,8.77
2017-08-13T07:16:45.981Z,9.90
2017-08-13T07:19:13.447Z,9.37
2017-08-13T07:21:40.893Z,11.80
2017-08-13T07:24:08.346Z,11.90
2017-08-13T07:26:35.809Z,10.57
2017-08-13T07:29:03.268Z,9.60
2017-08-13T07:31:30.724Z,10.70
2017-08-13T07:33:58.528Z,10.30
2017-08-13T07:36:26.083Z,11.70
2017-08-13T07:38:54.522Z,10.27
2017-08-13T07:41:22.006Z,10.57
2017-08-13T07:43:49.469Z,10.70
2017-08-13T07:46:16.941Z,8.50
2017-08-13T07:48:44.400Z,10.60
2017-08-13T07:51:11.861Z,10.20
2017-08-13T07:53:39.393Z,11.67
2017-08-13T07:56:06.853Z,10.97
2017-08-13T07:58:34.296Z,13.77
2017-08-13T08:01:02.612Z,10.33
2017-08-13T08:03:30.066Z,11.20
2017-08-13T08:05:57.529Z,12.30
2017-08-13T08:08:25.074Z,14.03
2017-08-13T08:10:53.942Z,13.13
2017-08-13T08:13:21.445Z,13.37
2017-08-13T08:15:49.653Z,12.17
2017-08-13T08:18:17.282Z,12.10
2017-08-13T08:20:44.749Z,12.07
2017-08-13T08:23:12.318Z,14.23
2017-08-13T08:25:40.558Z,13.10
2017-08-13T08:28:08.025Z,14.20
2017-08-13T08:30:35.486Z,13.73
2017-08-13T08:33:02.952Z,12.70
2017-08-13T08:35:30.417Z,12.43
2017-08-13T08:37:57.881Z,15.30
2017-08-13T08:40:25.350Z,12.20
2017-08-13T08:42:53.576Z,14.87
2017-08-13T08:45:21.038Z,13.00
2017-08-13T08:47:48.505Z,14.57
2017-08-13T08:50:15.977Z,12.57
2017-08-13T08:52:43.441Z,14.80
2017-08-13T08:55:10.909Z,15.60
2017-08-13T08:57:38.373Z,16.00
2017-08-13T09:00:05.837Z,17.93
2017-08-13T09:02:34.085Z,17.70
2017-08-13T09:05:01.532Z,18.07
2017-08-13T09:07:29.792Z,18.17
2017-08-13T09:09:57.270Z,18.27
2017-08-13T09:12:25.497Z,17.40
2017-08-13T09:14:52.953Z,17.60
2017-08-13T09:17:20.434Z,16.97
2017-08-13T09:19:47.885Z,17.20
2017-08-13T09:22:15.353Z,17.00
2017-08-13T09:24:42.801Z,16.37
2017-08-13T09:27:10.287Z,18.03
2017-08-13T09:29:37.748Z,15.00
2017-08-13T09:32:05.966Z,15.23
2017-08-13T09:34:34.201Z,17.37
2017-08-13T09:37:01.660Z,17.70
2017-08-13T09:39:29.128Z,16.67
2017-08-13T09:41:56.653Z,17.83
2017-08-13T09:44:24.117Z,17.07
2017-08-13T09:46:51.589Z,17.03
2017-08-13T09:49:19.097Z,17.13
2017-08-13T09:51:46.560Z,17.30
2017-08-13T09:54:14.024Z,18.07
2017-08-13T09:56:41.584Z,15.40
2017-08-13T09:59:09.040Z,16.13
2017-08-13T10:01:36.504Z,17.87
2017-08-13T10:04:03.955Z,17.67
2017-08-13T10:06:31.417Z,16.40
2017-08-13T10:08:58.868Z,16.80
2017-08-13T10:11:26.341Z,16.50
2017-08-13T10:13:53.819Z,16.90
2017-08-13T10:16:21.284Z,15.30
2017-08-13T10:18:48.749Z,15.80
2017-08-13T10:21:16.231Z,15.80
2017-08-13T10:23:43.673Z,15.00
2017-08-13T10:26:11.124Z,15.00
2017-08-13T10:28:38.603Z,13.93
2017-08-13T10:31:06.067Z,13.10
2017-08-13T10:33:33.534Z,15.27
2017-08-13T10:36:00.997Z,14.13
2017-08-13T10:38:28.556Z,13.30
2017-08-13T10:40:56.018Z,13.90
2017-08-13T10:43:23.521Z,14.90
2017-08-13T10:45:50.965Z,12.70
2017-08-13T10:48:18.497Z,13.90
2017-08-13T10:50:45.952Z,13.77
2017-08-13T10:53:13.413Z,12.20
2017-08-13T10:55:40.890Z,14.10
2017-08-13T10:58:08.356Z,14.10
2017-08-13T11:00:35.857Z,12.57
2017-08-13T11:03:04.101Z,12.77
2017-08-13T11:05:31.565Z,13.00
2017-08-13T11:07:59.047Z,12.30
2017-08-13T11:10:27.289Z,13.40
2017-08-13T11:12:54.805Z,11.70
2017-08-13T11:15:23.030Z,11.13
2017-08-13T11:17:50.485Z,11.63
2017-08-13T11:20:17.952Z,12.50
2017-08-13T11:22:45.414Z,11.17
2017-08-13T11:25:12.859Z,14.00
2017-08-13T11:27:40.345Z,13.43
2017-08-13T11:30:07.805Z,13.73
2017-08-13T11:32:35.268Z,13.20
2017-08-13T11:35:02.771Z,10.70
2017-08-13T11:37:30.231Z,10.60
2017-08-13T11:39:57.699Z,11.00
2017-08-13T11:42:25.142Z,11.37
2017-08-13T11:44:52.705Z,9.00
2017-08-13T11:47:20.171Z,8.23
2017-08-13T11:49:47.626Z,8.53
2017-08-13T11:52:15.197Z,6.63
2017-08-13T11:54:42.648Z,6.80
2017-08-13T11:57:10.108Z,6.53
2017-08-13T11:59:37.594Z,7.73
2017-08-13T12:02:05.081Z,7.17
2017-08-13T12:04:33.328Z,8.23
2017-08-13T12:07:00.785Z,6.10
2017-08-13T12:09:28.258Z,8.60
2017-08-13T12:11:55.707Z,7.93
2017-08-13T12:14:23.198Z,7.40
2017-08-13T12:16:50.637Z,7.57
2017-08-13T12:19:18.467Z,7.10
2017-08-13T12:21:45.920Z,7.70
2017-08-13T12:24:14.152Z,6.30
2017-08-13T12:26:41.604Z,9.13
2017-08-13T12:29:09.115Z,7.73
2017-08-13T12:31:36.574Z,6.97
2017-08-13T12:34:04.121Z,6.97
2017-08-13T12:36:35.023Z,6.30
2017-08-13T12:39:02.628Z,6.53
2017-08-13T12:41:30.076Z,5.87
2017-08-13T12:43:57.531Z,5.87
2017-08-13T12:46:24.971Z,6.63
2017-08-13T12:48:52.419Z,6.07
2017-08-13T12:51:20.644Z,6.27
2017-08-13T12:53:48.100Z,6.37
2017-08-13T12:56:15.556Z,5.17
2017-08-13T12:58:43.022Z,6.73
2017-08-13T13:01:10.525Z,5.20
2017-08-13T13:03:37.992Z,5.57
2017-08-13T13:06:05.633Z,5.77
2017-08-13T13:08:33.125Z,5.47
2017-08-13T13:11:00.613Z,5.47
2017-08-13T13:13:28.063Z,5.63
2017-08-13T13:15:57.159Z,6.10
2017-08-13T13:18:25.407Z,5.63
2017-08-13T13:20:52.893Z,4.93
2017-08-13T13:23:20.359Z,5.07
2017-08-13T13:25:47.822Z,4.80
2017-08-13T13:28:15.287Z,5.53
2017-08-13T13:30:42.765Z,5.00
2017-08-13T13:33:11.875Z,5.00
2017-08-13T13:35:39.369Z,4.50
2017-08-13T13:38:06.828Z,4.87
2017-08-13T13:40:34.280Z,4.60
2017-08-13T13:43:01.796Z,4.93
2017-08-13T13:45:29.255Z,5.00
2017-08-13T13:47:56.721Z,5.00
2017-08-13T13:50:24.546Z,5.60
2017-08-13T13:52:52.020Z,5.30
2017-08-13T13:55:19.519Z,4.53
2017-08-13T13:57:46.969Z,4.93
2017-08-13T14:00:14.432Z,5.17
2017-08-13T14:02:41.881Z,4.93
2017-08-13T14:05:09.338Z,4.50
2017-08-13T14:07:36.808Z,4.73
2017-08-13T14:10:04.256Z,4.70
2017-08-13T14:12:31.777Z,5.50
2017-08-13T14:15:00.121Z,3.47
2017-08-13T14:17:27.650Z,4.10
2017-08-13T14:19:55.180Z,4.13
2017-08-13T14:22:22.676Z,4.13
2017-08-13T14:24:50.130Z,3.50
2017-08-13T14:27:17.590Z,3.70
2017-08-13T14:29:45.826Z,3.67
2017-08-13T14:32:13.310Z,4.20
2017-08-13T14:34:40.761Z,3.90
2017-08-13T14:37:08.273Z,3.50
2017-08-13T14:39:35.784Z,3.97
2017-08-13T14:42:03.244Z,4.47
2017-08-13T14:44:30.725Z,4.20
2017-08-13T14:46:58.165Z,4.50
2017-08-13T14:49:25.621Z,3.93
2017-08-13T14:51:54.097Z,3.70
2017-08-13T14:54:21.578Z,3.80
2017-08-13T14:56:49.137Z,4.07
2017-08-13T14:59:16.609Z,3.90
2017-08-13T15:01:44.177Z,4.20
2017-08-13T15:04:11.657Z,4.03
2017-08-13T15:06:39.142Z,4.03
2017-08-13T15:09:07.379Z,3.23
2017-08-13T15:11:34.828Z,3.60
2017-08-13T15:14:02.451Z,3.20
2017-08-13T15:16:30.697Z,3.70
2017-08-13T15:18:58.210Z,3.20
2017-08-13T15:21:28.238Z,3.70
2017-08-13T15:23:55.728Z,3.10
2017-08-13T15:26:23.237Z,3.03
2017-08-13T15:28:51.461Z,3.53
2017-08-13T15:31:19.592Z,3.67
2017-08-13T15:33:47.856Z,3.43
2017-08-13T15:36:15.537Z,3.23
2017-08-13T15:38:43.021Z,4.60
2017-08-13T15:41:11.305Z,3.87
2017-08-13T15:43:39.689Z,3.70
2017-08-13T15:46:07.898Z,3.30
2017-08-13T15:48:35.406Z,3.70
2017-08-13T15:51:02.878Z,3.73
2017-08-13T15:53:30.336Z,4.03
2017-08-13T15:55:57.786Z,3.80
2017-08-13T15:58:27.465Z,3.70
2017-08-13T16:00:54.944Z,3.23
2017-08-13T16:03:22.442Z,3.43
2017-08-13T16:05:49.888Z,3.07
2017-08-13T16:08:17.328Z,2.90
2017-08-13T16:10:44.831Z,2.60
2017-08-13T16:13:12.268Z,2.87
2017-08-13T16:15:39.794Z,3.80
2017-08-13T16:18:07.285Z,3.63
2017-08-13T16:20:34.753Z,3.00
2017-08-13T16:23:02.234Z,2.50
2017-08-13T16:25:29.705Z,3.20
2017-08-13T16:27:57.237Z,2.97
2017-08-13T16:30:27.504Z,3.07
2017-08-13T16:32:54.993Z,3.27
2017-08-13T16:35:22.453Z,3.10
2017-08-13T16:37:50.697Z,2.80
2017-08-13T16:40:18.269Z,2.60
2017-08-13T16:42:46.568Z,2.80
2017-08-13T16:45:14.793Z,3.60
2017-08-13T16:47:42.256Z,3.13
2017-08-13T16:50:09.717Z,2.67
2017-08-13T16:52:37.693Z,4.70
2017-08-13T16:55:05.149Z,4.03
2017-08-13T16:57:32.702Z,4.27
2017-08-13T17:00:00.174Z,4.33
2017-08-13T17:02:28.252Z,3.40
2017-08-13T17:04:55.715Z,3.50
2017-08-13T17:07:23.155Z,2.87
2017-08-13T17:09:50.611Z,3.50
2017-08-13T17:12:18.850Z,3.40
2017-08-13T17:14:46.425Z,2.70
2017-08-13T17:17:14.693Z,3.50
2017-08-13T17:19:42.148Z,2.87
2017-08-13T17:22:10.196Z,3.57
2017-08-13T17:24:37.648Z,3.10
2017-08-13T17:27:05.888Z,3.83
2017-08-13T17:29:33.353Z,3.40
2017-08-13T17:32:00.925Z,5.40
2017-08-13T17:34:28.377Z,8.20
2017-08-13T17:36:55.860Z,8.17
2017-08-13T17:39:23.357Z,6.60
2017-08-13T17:41:50.820Z,5.23
2017-08-13T17:44:18.264Z,4.40
2017-08-13T17:46:47.348Z,4.37
2017-08-13T17:49:14.813Z,4.90
2017-08-13T17:51:42.296Z,3.90
2017-08-13T17:54:10.542Z,4.47
2017-08-13T17:56:37.996Z,4.70
2017-08-13T17:59:05.452Z,2.90
2017-08-13T18:01:32.908Z,3.10
2017-08-13T18:04:00.369Z,4.03
2017-08-13T18:06:27.832Z,3.43
2017-08-13T18:08:55.276Z,3.80
2017-08-13T18:11:22.752Z,3.13
2017-08-13T18:13:50.230Z,3.63
2017-08-13T18:16:17.685Z,3.10
2017-08-13T18:18:45.178Z,2.67
2017-08-13T18:21:12.661Z,3.00
2017-08-13T18:23:40.883Z,2.57
2017-08-13T18:26:08.324Z,3.13
2017-08-13T18:28:36.272Z,3.03
2017-08-13T18:31:04.506Z,2.37
2017-08-13T18:33:31.989Z,2.80
2017-08-13T18:35:59.472Z,3.07
2017-08-13T18:38:26.936Z,2.57
2017-08-13T18:40:54.401Z,3.10
2017-08-13T18:43:21.869Z,2.80
2017-08-13T18:45:49.331Z,3.40
2017-08-13T18:48:16.872Z,3.50
2017-08-13T18:50:44.329Z,4.17
2017-08-13T18:53:11.791Z,4.17
2017-08-13T18:55:39.893Z,3.43
2017-08-13T18:58:07.349Z,3.50
2017-08-13T19:00:34.832Z,3.97
2017-08-13T19:03:03.056Z,4.23
2017-08-13T19:05:30.513Z,4.43
2017-08-13T19:07:57.984Z,3.70
2017-08-13T19:10:25.444Z,3.90
2017-08-13T19:12:52.943Z,4.33
2017-08-13T19:15:20.400Z,3.77
2017-08-13T19:17:47.889Z,4.17
2017-08-13T19:20:15.597Z,3.57
2017-08-13T19:22:43.083Z,4.30
2017-08-13T19:25:10.550Z,4.70
2017-08-13T19:27:38.362Z,4.90
2017-08-13T19:30:06.597Z,4.50
2017-08-13T19:32:34.058Z,4.70
2017-08-13T19:35:01.527Z,4.40
2017-08-13T19:37:29.027Z,4.10
2017-08-13T19:39:57.248Z,4.07
2017-08-13T19:42:24.720Z,3.93
2017-08-13T19:44:53.087Z,4.70
2017-08-13T19:47:20.563Z,3.90
2017-08-13T19:49:48.030Z,4.43
2017-08-13T19:52:15.501Z,3.90
2017-08-13T19:54:42.962Z,3.70
2017-08-13T19:57:10.421Z,4.50
2017-08-13T19:59:37.913Z,3.47
2017-08-13T20:02:05.370Z,4.50
2017-08-13T20:04:32.843Z,4.40
2017-08-13T20:07:00.293Z,4.63
2017-08-13T20:09:27.851Z,4.43
2017-08-13T20:11:55.309Z,3.47
2017-08-13T20:14:22.768Z,4.43
2017-08-13T20:16:50.236Z,4.10
2017-08-13T20:19:17.723Z,3.67
2017-08-13T20:21:45.188Z,4.17
2017-08-13T20:24:12.650Z,3.63
2017-08-13T20:26:40.100Z,3.63
2017-08-13T20:29:07.560Z,3.00
2017-08-13T20:31:35.036Z,3.77
2017-08-13T20:34:04.584Z,3.27
2017-08-13T20:36:32.048Z,3.73
2017-08-13T20:38:59.500Z,3.83
2017-08-13T20:41:27.733Z,4.30
2017-08-13T20:43:55.559Z,4.10
2017-08-13T20:46:23.820Z,4.10
2017-08-13T20:48:52.037Z,3.87
2017-08-13T20:51:19.501Z,3.57
2017-08-13T20:53:47.006Z,3.77
2017-08-13T20:56:14.437Z,3.70
2017-08-13T20:58:41.891Z,3.17
2017-08-13T21:01:09.349Z,3.40
2017-08-13T21:03:36.796Z,3.40
2017-08-13T21:06:04.266Z,4.17
2017-08-13T21:08:31.730Z,4.27
2017-08-13T21:10:59.185Z,4.40
2017-08-13T21:13:26.644Z,3.43
2017-08-13T21:15:54.105Z,3.80
2017-08-13T21:18:21.564Z,3.60
2017-08-13T21:20:49.785Z,3.77
2017-08-13T21:23:17.263Z,3.03
2017-08-13T21:25:44.730Z,3.20
2017-08-13T21:28:12.221Z,4.03
2017-08-13T21:30:40.453Z,3.80
2017-08-13T21:33:07.904Z,3.40
2017-08-13T21:35:35.366Z,3.47
2017-08-13T21:38:02.840Z,3.67
2017-08-13T21:40:30.294Z,4.50
2017-08-13T21:42:57.765Z,4.23
2017-08-13T21:45:25.228Z,3.83
2017-08-13T21:47:52.746Z,3.20
2017-08-13T21:50:20.248Z,3.77
2017-08-13T21:52:47.748Z,4.33
2017-08-13T21:55:15.196Z,3.63
2017-08-13T21:57:42.685Z,4.30
2017-08-13T22:00:10.133Z,3.30
2017-08-13T22:02:37.598Z,4.17
2017-08-13T22:05:05.057Z,3.97
2017-08-13T22:07:32.612Z,3.40
2017-08-13T22:10:00.067Z,3.90
2017-08-13T22:12:27.546Z,3.50
2017-08-13T22:14:55.052Z,4.10
2017-08-13T22:17:22.517Z,3.67
2017-08-13T22:19:50.733Z,3.70
2017-08-13T22:22:18.184Z,3.67
2017-08-13T22:24:45.663Z,3.67
2017-08-13T22:27:13.158Z,3.30
2017-08-13T22:29:40.608Z,3.83
2017-08-13T22:32:08.073Z,3.87
2017-08-13T22:34:35.524Z,4.27
2017-08-13T22:37:03.143Z,4.00
2017-08-13T22:39:31.360Z,2.60
2017-08-13T22:41:58.817Z,3.80
2017-08-13T22:44:26.284Z,3.80
2017-08-13T22:46:53.743Z,3.67
2017-08-13T22:49:21.205Z,3.67
2017-08-13T22:51:48.656Z,3.37
2017-08-13T22:54:16.121Z,3.63
2017-08-13T22:56:44.411Z,3.43
2017-08-13T22:59:11.865Z,3.43
2017-08-13T23:01:39.371Z,3.77
2017-08-13T23:04:06.837Z,3.70
2017-08-13T23:06:34.307Z,3.80
2017-08-13T23:09:01.765Z,3.50
2017-08-13T23:11:29.222Z,3.47
2017-08-13T23:13:56.673Z,2.80
2017-08-13T23:16:24.233Z,2.80
2017-08-13T23:18:52.412Z,4.07
2017-08-13T23:21:19.867Z,3.73
2017-08-13T23:23:48.929Z,3.57
2017-08-13T23:26:16.385Z,3.67
2017-08-13T23:28:45.499Z,3.57
2017-08-13T23:31:12.936Z,4.20
2017-08-13T23:33:41.161Z,3.37
2017-08-13T23:36:08.649Z,2.73
2017-08-13T23:38:36.192Z,3.50
2017-08-13T23:41:03.672Z,3.63
2017-08-13T23:43:31.117Z,4.27
2017-08-13T23:45:58.572Z,3.60
2017-08-13T23:48:26.033Z,4.37
2017-08-13T23:50:53.494Z,4.70
2017-08-13T23:53:20.957Z,3.47
2017-08-13T23:55:48.414Z,3.80
2017-08-13T23:58:16.084Z,4.57
